KDED/DED METAR and TAF weather

Enter ICAO airport designator
Station Type Date Time Source
KDED METAR 2018/12/11 00:15 UTC NOAA

KDED 110015Z AUTO 29009KT 10SM OVC023 09/05 A3015 RMK AO2


Station Type Date Time Source
KDED Decoded METAR 2018/12/11 00:15 UTC NOAA

Station name not available
Dec 10, 2018 - 07:15 PM EST / 2018.12.11 0015 UTC
Wind: from the WNW (290 degrees) at 10 MPH (9 KT):0
Visibility: 10 mile(s):0
Sky conditions: overcast
Temperature: 48 F (9 C)
Dew Point: 41 F (5 C)
Relative Humidity: 75%
Pressure (altimeter): 30.15 in. Hg (1020 hPa)
ob: KDED 110015Z AUTO 29009KT 10SM OVC023 09/05 A3015 RMK AO2
cycle: 0

Station Type Date Time Source
KDED TAF UTC NOAA

Error!


Example: see airport list